Time;durP1;ratioP1;P1;durP2;ratioP2;P2;SDS_P1;SDS_P2;PMS_P1;PMS_P2;Temp;Humidity;BMP_temperature;BMP_pressure;BME280_temperature;BME280_humidity;BME280_pressure;Samples;Min_cycle;Max_cycle;Signal;HPM_P1;HPM_P2
2021/03/05 00:00:52;;;;;;;49.50;33.15;;;;;;;4.76;66.96;99552.30;1715952;83;23104;-71
2021/03/05 00:03:20;;;;;;;51.88;34.27;;;;;;;4.75;67.06;99558.00;1724469;81;21556;-72
2021/03/05 00:05:48;;;;;;;40.25;27.20;;;;;;;4.76;67.10;99552.30;1704764;83;21171;-71
2021/03/05 00:08:17;;;;;;;54.23;35.35;;;;;;;4.75;67.13;99550.16;1667136;84;21200;-71
2021/03/05 00:10:47;;;;;;;43.20;27.90;;;;;;;4.73;67.18;99556.41;1705421;83;21139;-71
2021/03/05 00:13:15;;;;;;;45.70;29.55;;;;;;;4.70;67.23;99552.23;1722592;81;21866;-71
2021/03/05 00:15:44;;;;;;;47.43;30.57;;;;;;;4.69;67.32;99560.19;1665159;84;21098;-71
2021/03/05 00:18:13;;;;;;;45.05;31.45;;;;;;;4.67;67.42;99562.91;1646457;84;21102;-71
2021/03/05 00:20:46;;;;;;;49.20;33.53;;;;;;;4.67;67.42;99566.00;1698864;81;21380;-71
2021/03/05 00:23:14;;;;;;;50.17;32.20;;;;;;;4.66;67.46;99557.80;1725940;81;21143;-71
2021/03/05 00:25:42;;;;;;;57.75;35.78;;;;;;;4.64;67.53;99563.13;1643786;84;22818;-71
2021/03/05 00:28:10;;;;;;;53.75;36.08;;;;;;;4.61;67.61;99556.78;1718026;81;21135;-71
2021/03/05 00:30:38;;;;;;;47.30;31.57;;;;;;;4.59;67.69;99556.89;1711359;83;21120;-71
2021/03/05 00:33:07;;;;;;;55.48;35.75;;;;;;;4.57;67.79;99560.55;1645020;84;21225;-71
2021/03/05 00:35:37;;;;;;;51.25;35.23;;;;;;;4.55;67.78;99563.28;1724505;81;21125;-71
2021/03/05 00:38:19;;;;;;;56.42;36.23;;;;;;;4.53;67.88;99559.91;1699153;84;22086;-71
2021/03/05 00:40:47;;;;;;;55.78;35.92;;;;;;;4.50;67.93;99571.89;1690923;84;21112;-71
2021/03/05 00:43:16;;;;;;;54.80;34.05;;;;;;;4.48;68.07;99579.01;1690882;84;21099;-71
2021/03/05 00:45:44;;;;;;;53.40;35.88;;;;;;;4.47;68.17;99566.05;1690993;84;21141;-71
2021/03/05 00:48:13;;;;;;;54.80;37.00;;;;;;;4.47;68.25;99576.03;1667740;84;21158;-71
2021/03/05 00:50:41;;;;;;;56.48;34.80;;;;;;;4.44;68.31;99579.30;1648909;87;22074;-71
2021/03/05 00:53:09;;;;;;;57.00;37.93;;;;;;;4.43;68.33;99580.24;1691120;84;21193;-71
2021/03/05 00:55:38;;;;;;;54.38;36.20;;;;;;;4.40;68.43;99589.61;1690891;84;21074;-71
2021/03/05 00:58:08;;;;;;;52.83;34.80;;;;;;;4.37;68.46;99589.34;1690751;84;21130;-71
2021/03/05 01:00:36;;;;;;;49.75;35.03;;;;;;;4.36;68.58;99583.75;1667109;84;21209;-71
2021/03/05 01:03:07;;;;;;;50.55;31.62;;;;;;;4.33;68.67;99583.09;1690656;83;22031;-72
2021/03/05 01:05:36;;;;;;;55.03;36.13;;;;;;;4.33;68.73;99585.72;1680987;83;21619;-71
2021/03/05 01:08:07;;;;;;;63.55;38.58;;;;;;;4.29;68.89;99587.70;1688157;84;21088;-71
2021/03/05 01:10:36;;;;;;;56.37;36.30;;;;;;;4.29;68.92;99591.63;1693625;83;21164;-71
2021/03/05 01:13:05;;;;;;;54.95;37.10;;;;;;;4.26;69.07;99594.45;1699303;83;21125;-71
2021/03/05 01:15:33;;;;;;;53.75;35.70;;;;;;;4.22;69.07;99599.02;1701612;83;21916;-71
2021/03/05 01:18:01;;;;;;;53.20;34.92;;;;;;;4.21;69.11;99600.44;1691129;83;21511;-71
2021/03/05 01:20:30;;;;;;;55.52;37.17;;;;;;;4.17;69.27;99602.89;1690704;83;21212;-71
2021/03/05 01:22:57;;;;;;;56.65;36.60;;;;;;;4.10;69.39;99602.91;1690877;83;21112;-70
2021/03/05 01:25:28;;;;;;;54.93;35.88;;;;;;;4.03;69.44;99612.45;1689482;83;21454;-71
2021/03/05 01:27:56;;;;;;;57.60;36.53;;;;;;;3.99;69.49;99617.52;1662774;83;22077;-72
2021/03/05 01:30:26;;;;;;;56.42;36.05;;;;;;;3.94;69.54;99609.12;1691022;83;21113;-72
2021/03/05 01:32:53;;;;;;;58.65;36.17;;;;;;;3.88;69.66;99613.45;1698159;83;21422;-71
2021/03/05 01:35:24;;;;;;;56.13;34.53;;;;;;;3.85;69.70;99627.16;1691770;83;21537;-71
2021/03/05 01:37:51;;;;;;;60.10;35.23;;;;;;;3.80;69.76;99624.85;1715284;82;21150;-70
2021/03/05 01:40:38;;;;;;;59.38;36.60;;;;;;;3.76;69.81;99619.90;1686457;83;22078;-71
2021/03/05 01:43:08;;;;;;;57.40;35.43;;;;;;;3.72;69.87;99619.27;1729384;81;21243;-71
2021/03/05 01:45:39;;;;;;;54.27;35.03;;;;;;;3.70;69.90;99617.23;1716379;82;21118;-70
2021/03/05 01:48:14;;;;;;;54.50;34.65;;;;;;;3.70;69.99;99631.59;1723229;82;21181;-71
2021/03/05 01:51:09;;;;;;;58.98;35.50;;;;;;;3.66;70.04;99632.70;1718533;83;21153;-71
2021/03/05 01:53:39;;;;;;;59.67;36.23;;;;;;;3.63;70.12;99635.05;1712029;83;24306;-71
2021/03/05 01:56:08;;;;;;;61.90;35.30;;;;;;;3.61;70.14;99635.61;1720201;82;21814;-71
2021/03/05 01:58:36;;;;;;;61.13;35.43;;;;;;;3.59;70.20;99630.13;1686100;83;21089;-71
2021/03/05 02:01:09;;;;;;;56.63;34.08;;;;;;;3.58;70.21;99639.73;1715009;82;21139;-71
2021/03/05 02:03:39;;;;;;;59.42;35.50;;;;;;;3.56;70.22;99642.05;1721797;82;21075;-70
2021/03/05 02:06:07;;;;;;;64.27;36.50;;;;;;;3.53;70.29;99640.94;1715372;82;21915;-71
2021/03/05 02:08:34;;;;;;;61.05;36.15;;;;;;;3.51;70.35;99644.12;1696626;83;21162;-73
2021/03/05 02:11:02;;;;;;;56.77;33.33;;;;;;;3.49;70.36;99640.30;1724313;81;21121;-71
2021/03/05 02:13:30;;;;;;;66.97;37.13;;;;;;;3.48;70.40;99643.02;1727524;81;21180;-71
2021/03/05 02:15:58;;;;;;;68.07;38.00;;;;;;;3.47;70.39;99650.44;1729566;81;20948;-71
2021/03/05 02:18:36;;;;;;;70.78;37.60;;;;;;;3.44;70.39;99650.17;1701848;83;22055;-71
2021/03/05 02:21:34;;;;;;;64.25;36.68;;;;;;;3.40;70.42;99639.09;1729014;81;21154;-71
2021/03/05 02:24:51;;;;;;;72.42;39.30;;;;;;;3.36;70.48;99649.34;1721794;82;21173;-71
2021/03/05 02:28:00;;;;;;;68.80;36.48;;;;;;;3.34;70.51;99653.81;1721779;82;21088;-70
2021/03/05 02:30:55;;;;;;;69.67;37.10;;;;;;;3.32;70.55;99650.47;1721397;82;21241;-70
2021/03/05 02:33:54;;;;;;;73.20;38.98;;;;;;;3.28;70.57;99650.30;1657289;85;22937;-71
2021/03/05 02:36:27;;;;;;;70.32;37.55;;;;;;;3.27;70.65;99658.19;1717795;81;21560;-71
2021/03/05 02:39:17;;;;;;;68.83;38.10;;;;;;;3.25;70.68;99656.98;1700907;82;21090;-70
2021/03/05 02:41:54;;;;;;;68.10;38.33;;;;;;;3.25;70.70;99661.36;1688144;83;21086;-70
2021/03/05 02:44:26;;;;;;;70.57;36.60;;;;;;;3.22;70.74;99670.23;1676466;84;21141;-70
2021/03/05 02:47:01;;;;;;;66.82;37.65;;;;;;;3.20;70.76;99664.27;1700966;83;22141;-70
2021/03/05 02:49:32;;;;;;;71.20;39.40;;;;;;;3.18;70.79;99664.80;1713236;81;21103;-71
2021/03/05 02:52:08;;;;;;;69.85;38.30;;;;;;;3.15;70.85;99661.92;1684354;83;21185;-72
2021/03/05 02:57:16;;;;;;;67.78;37.13;;;;;;;3.20;70.92;99672.56;1884695;74;29614;-71
2021/03/05 02:59:44;;;;;;;65.40;35.45;;;;;;;3.12;70.94;99670.41;1844057;77;21091;-71
2021/03/05 03:02:12;;;;;;;62.75;35.63;;;;;;;3.09;70.96;99674.05;1815903;77;21834;-71
2021/03/05 03:04:43;;;;;;;61.50;34.83;;;;;;;3.06;70.98;99679.42;1817423;77;21131;-71
2021/03/05 03:07:11;;;;;;;59.00;34.40;;;;;;;3.05;70.97;99680.83;1832253;77;21142;-71
2021/03/05 03:09:40;;;;;;;54.65;30.70;;;;;;;3.03;70.85;99687.91;1849124;77;21103;-72
2021/03/05 03:12:09;;;;;;;58.00;32.93;;;;;;;3.01;70.84;99691.09;1819248;77;21111;-72
2021/03/05 03:14:38;;;;;;;57.80;32.48;;;;;;;2.98;70.73;99684.25;1836468;77;22052;-71
2021/03/05 03:17:07;;;;;;;56.45;30.62;;;;;;;2.98;70.72;99692.55;1820241;77;21169;-71
2021/03/05 03:19:37;;;;;;;57.85;31.68;;;;;;;2.96;70.70;99690.50;1817668;77;21638;-71
2021/03/05 03:22:05;;;;;;;59.42;32.95;;;;;;;2.95;70.60;99702.70;1819664;77;21055;-72
2021/03/05 03:24:34;;;;;;;60.80;32.05;;;;;;;2.96;70.62;99703.55;1838048;77;21111;-71
2021/03/05 03:27:03;;;;;;;58.15;32.33;;;;;;;2.95;70.63;99704.48;1839430;77;22018;-71
2021/03/05 03:29:31;;;;;;;61.85;32.75;;;;;;;2.95;70.58;99707.09;1828507;77;21075;-71
2021/03/05 03:31:59;;;;;;;58.35;30.17;;;;;;;2.95;70.53;99707.09;1812849;77;21103;-72
2021/03/05 03:34:27;;;;;;;55.50;30.70;;;;;;;2.96;70.50;99703.55;1827731;76;21086;-71
2021/03/05 03:36:57;;;;;;;55.35;30.62;;;;;;;2.95;70.41;99712.30;1850402;76;21121;-71
2021/03/05 03:39:25;;;;;;;57.78;31.97;;;;;;;2.92;70.34;99708.11;1858393;76;21818;-71
2021/03/05 03:41:53;;;;;;;55.98;31.15;;;;;;;2.91;70.33;99708.20;1824491;76;21569;-71
2021/03/05 03:44:21;;;;;;;55.67;29.42;;;;;;;2.87;70.40;99707.06;1850844;76;21145;-71
2021/03/05 03:46:49;;;;;;;54.27;29.80;;;;;;;2.87;70.35;99704.92;1817416;78;21126;-71
2021/03/05 03:49:45;;;;;;;53.23;30.62;;;;;;;2.86;70.33;99711.91;1807389;78;21113;-72
2021/03/05 03:52:21;;;;;;;84.62;48.85;;;;;;;2.85;70.29;99711.53;1793660;80;22025;-71
2021/03/05 03:54:49;;;;;;;65.95;35.65;;;;;;;2.85;70.18;99715.45;1815273;78;21152;-71
2021/03/05 03:57:17;;;;;;;61.02;33.92;;;;;;;2.82;70.10;99719.55;1756059;80;21185;-71
2021/03/05 03:59:45;;;;;;;55.28;31.52;;;;;;;2.80;70.08;99727.09;1807846;78;21066;-71
2021/03/05 04:02:12;;;;;;;54.35;28.35;;;;;;;2.79;69.93;99724.08;1788089;78;21038;-71
2021/03/05 04:04:41;;;;;;;50.50;28.32;;;;;;;2.78;69.87;99728.92;1773460;79;22075;-71
2021/03/05 04:07:09;;;;;;;46.83;25.55;;;;;;;2.75;69.79;99732.55;1791881;78;21565;-71
2021/03/05 04:09:37;;;;;;;50.23;28.10;;;;;;;2.76;69.71;99724.27;1793130;78;21592;-71
2021/03/05 04:12:07;;;;;;;62.98;34.65;;;;;;;2.74;69.68;99717.84;1747529;79;21098;-72
2021/03/05 04:14:35;;;;;;;70.90;41.48;;;;;;;2.75;69.59;99727.80;1798613;78;20987;-70
2021/03/05 04:17:03;;;;;;;60.58;32.90;;;;;;;2.74;69.57;99724.36;1772963;79;22152;-70
2021/03/05 04:19:31;;;;;;;62.73;35.48;;;;;;;2.73;69.42;99721.38;1793639;78;21082;-70
2021/03/05 04:21:59;;;;;;;73.62;42.55;;;;;;;2.71;69.42;99727.62;1754187;79;21081;-70
2021/03/05 04:24:28;;;;;;;62.73;33.00;;;;;;;2.70;69.47;99725.48;1820682;78;21121;-70
2021/03/05 04:26:57;;;;;;;60.23;32.48;;;;;;;2.70;69.47;99731.12;1805668;79;21142;-70
2021/03/05 04:29:25;;;;;;;59.48;34.33;;;;;;;2.70;69.51;99729.82;1794378;78;24277;-70
2021/03/05 04:31:52;;;;;;;71.82;43.38;;;;;;;2.68;69.53;99732.52;1796435;79;21075;-70
2021/03/05 04:34:20;;;;;;;70.47;41.80;;;;;;;2.69;69.57;99732.05;1793580;78;21157;-70
2021/03/05 04:36:49;;;;;;;56.60;31.12;;;;;;;2.68;69.54;99732.52;1775696;79;21524;-70
2021/03/05 04:39:18;;;;;;;56.98;30.40;;;;;;;2.67;69.56;99730.84;1753195;79;21096;-71
2021/03/05 04:41:46;;;;;;;54.45;30.25;;;;;;;2.68;69.54;99732.52;1793557;78;22087;-70
2021/03/05 04:44:14;;;;;;;52.43;29.57;;;;;;;2.69;69.53;99735.97;1808370;78;21184;-70
2021/03/05 04:46:42;;;;;;;56.20;31.10;;;;;;;2.68;69.53;99740.34;1803172;78;21065;-71
2021/03/05 04:49:10;;;;;;;53.58;29.37;;;;;;;2.65;69.53;99743.14;1782007;79;21147;-69
2021/03/05 04:51:38;;;;;;;57.43;29.20;;;;;;;2.63;69.60;99742.39;1793107;80;21118;-70
2021/03/05 04:54:07;;;;;;;59.42;30.12;;;;;;;2.61;69.79;99748.63;1775463;79;22075;-71
2021/03/05 04:56:36;;;;;;;56.48;29.85;;;;;;;2.59;69.94;99749.52;1792453;78;21094;-70
2021/03/05 04:59:04;;;;;;;57.55;30.77;;;;;;;2.60;70.10;99751.67;1767691;80;21089;-70
2021/03/05 05:01:32;;;;;;;55.12;30.70;;;;;;;2.60;70.25;99755.58;1775863;80;21121;-70
2021/03/05 05:04:00;;;;;;;54.08;29.82;;;;;;;2.59;70.41;99757.81;1754879;80;21098;-71
2021/03/05 05:06:29;;;;;;;61.08;32.80;;;;;;;2.58;70.59;99764.80;1776361;78;21604;-71
2021/03/05 05:08:59;;;;;;;66.10;37.53;;;;;;;2.55;70.76;99764.98;1730656;82;21146;-71
2021/03/05 05:11:27;;;;;;;68.42;37.50;;;;;;;2.53;70.84;99766.84;1750438;81;21168;-74
2021/03/05 05:13:55;;;;;;;66.90;37.13;;;;;;;2.50;71.03;99765.68;1761719;81;21051;-72
2021/03/05 05:16:28;;;;;;;61.83;34.18;;;;;;;2.49;71.15;99762.70;1771420;79;21086;-73
2021/03/05 05:18:57;;;;;;;62.88;34.05;;;;;;;2.49;71.29;99764.00;1790140;80;22043;-73
2021/03/05 05:21:25;;;;;;;61.42;31.75;;;;;;;2.49;71.40;99764.00;1777714;80;21059;-72
2021/03/05 05:23:53;;;;;;;62.13;33.38;;;;;;;2.50;71.46;99769.59;1762805;80;21065;-71
2021/03/05 05:26:21;;;;;;;67.62;38.40;;;;;;;2.49;71.55;99778.34;1762822;80;21082;-72
2021/03/05 05:28:50;;;;;;;67.80;37.40;;;;;;;2.48;71.62;99775.36;1782114;80;21101;-72
2021/03/05 05:31:17;;;;;;;97.47;55.00;;;;;;;2.47;71.71;99781.50;1763182;80;22075;-72
2021/03/05 05:33:46;;;;;;;94.80;52.40;;;;;;;2.46;71.79;99775.08;1786453;80;21114;-71
2021/03/05 05:36:15;;;;;;;63.00;34.98;;;;;;;2.47;71.81;99781.97;1774674;80;21050;-72
2021/03/05 05:38:43;;;;;;;79.22;46.53;;;;;;;2.47;71.85;99776.75;1773308;80;21121;-73
2021/03/05 05:41:14;;;;;;;79.67;45.52;;;;;;;2.46;71.80;99786.80;1791796;79;21081;-70
2021/03/05 05:43:42;;;;;;;75.15;43.28;;;;;;;2.44;71.84;99787.36;1780248;80;21952;-73
2021/03/05 05:46:10;;;;;;;64.22;35.45;;;;;;;2.43;71.85;99784.38;1791889;79;21126;-72
2021/03/05 05:48:39;;;;;;;67.10;35.70;;;;;;;2.43;71.84;99790.89;1784511;79;21212;-71
2021/03/05 05:51:21;;;;;;;59.58;32.08;;;;;;;2.45;71.82;99787.73;1790929;80;21134;-72
2021/03/05 05:53:51;;;;;;;55.85;29.50;;;;;;;2.45;71.79;99795.09;1754104;80;21122;-72
2021/03/05 05:56:19;;;;;;;57.13;30.15;;;;;;;2.45;71.74;99791.17;1783682;78;22010;-72
2021/03/05 05:58:47;;;;;;;57.08;29.15;;;;;;;2.44;71.69;99793.41;1797332;79;21202;-72
2021/03/05 06:01:16;;;;;;;57.13;29.77;;;;;;;2.46;71.65;99803.75;1779118;79;21067;-72
2021/03/05 06:03:44;;;;;;;52.43;26.75;;;;;;;2.44;71.62;99799.92;1813766;78;21794;-72
2021/03/05 06:06:12;;;;;;;50.28;25.85;;;;;;;2.44;71.61;99808.21;1797702;79;21050;-72
2021/03/05 06:08:41;;;;;;;53.48;28.87;;;;;;;2.42;71.58;99806.16;1778225;79;22075;-71
2021/03/05 06:11:09;;;;;;;56.20;29.15;;;;;;;2.40;71.54;99806.68;1792567;79;21174;-71
2021/03/05 06:13:38;;;;;;;52.05;28.23;;;;;;;2.38;71.52;99811.98;1787082;78;21133;-72
2021/03/05 06:16:18;;;;;;;50.98;28.73;;;;;;;2.39;71.48;99816.73;1825599;78;21046;-72
2021/03/05 06:18:47;;;;;;;55.58;30.37;;;;;;;2.37;71.46;99820.72;1793089;80;21086;-72
2021/03/05 06:21:15;;;;;;;53.75;29.48;;;;;;;2.39;71.46;99808.91;1780513;80;22074;-72
2021/03/05 06:24:00;;;;;;;55.73;29.75;;;;;;;2.42;71.46;99813.98;1779600;79;21130;-72
2021/03/05 06:26:29;;;;;;;55.70;29.18;;;;;;;2.45;71.47;99812.03;1835293;77;21494;-72
2021/03/05 06:29:07;;;;;;;51.85;27.85;;;;;;;2.50;71.46;99806.55;1794805;78;21192;-72
2021/03/05 06:31:34;;;;;;;57.53;28.57;;;;;;;2.55;71.47;99809.76;1798318;79;21117;-71
2021/03/05 06:34:03;;;;;;;52.25;26.80;;;;;;;2.60;71.47;99807.72;1795410;78;22035;-73
2021/03/05 06:36:31;;;;;;;56.40;28.85;;;;;;;2.65;71.40;99812.23;1802161;79;21082;-73
2021/03/05 06:39:00;;;;;;;51.02;27.20;;;;;;;2.69;71.32;99817.64;1792890;80;21121;-74
2021/03/05 06:41:30;;;;;;;55.05;28.40;;;;;;;2.72;71.20;99814.88;1796519;79;21558;-74
2021/03/05 06:44:03;;;;;;;49.08;27.35;;;;;;;2.76;71.16;99813.77;1793093;78;21180;-74
2021/03/05 06:46:37;;;;;;;49.25;26.33;;;;;;;2.82;71.06;99814.73;1811163;78;22068;-74
2021/03/05 06:49:13;;;;;;;49.40;26.02;;;;;;;2.88;70.97;99811.77;1794987;79;21188;-74
2021/03/05 06:51:42;;;;;;;47.23;26.93;;;;;;;2.94;70.86;99817.11;1777441;80;21454;-74
2021/03/05 06:54:14;;;;;;;48.50;26.07;;;;;;;2.98;70.68;99826.89;1766468;79;21114;-74
2021/03/05 06:56:47;;;;;;;43.35;24.37;;;;;;;2.99;70.47;99824.23;1807464;79;21037;-74
2021/03/05 06:59:18;;;;;;;46.33;24.85;;;;;;;3.04;70.33;99827.86;1803063;79;22061;-74
2021/03/05 07:01:55;;;;;;;44.65;23.95;;;;;;;3.07;70.15;99826.37;1806754;79;21071;-75
2021/03/05 07:04:29;;;;;;;42.98;23.02;;;;;;;3.13;70.01;99829.95;1805178;79;21193;-74
2021/03/05 07:07:08;;;;;;;47.10;24.40;;;;;;;3.16;69.83;99823.23;1786429;79;21173;-74
2021/03/05 07:09:53;;;;;;;42.73;23.65;;;;;;;3.20;69.64;99827.37;1781667;80;21146;-74
2021/03/05 07:12:25;;;;;;;46.77;24.15;;;;;;;3.23;69.45;99827.19;1823851;78;22122;-74
2021/03/05 07:15:12;;;;;;;43.02;23.25;;;;;;;3.26;69.39;99832.68;1806942;78;21064;-75
2021/03/05 07:17:42;;;;;;;38.95;21.20;;;;;;;3.26;69.19;99835.29;1795091;78;21070;-75
2021/03/05 07:20:14;;;;;;;36.75;20.72;;;;;;;3.24;68.69;99835.38;1799489;78;21089;-75
2021/03/05 07:22:41;;;;;;;41.60;21.82;;;;;;;3.18;68.22;99837.03;1795429;79;21417;-75
2021/03/05 07:25:11;;;;;;;39.20;21.42;;;;;;;3.10;68.08;99841.41;1824086;78;24269;-74
2021/03/05 07:27:39;;;;;;;40.05;20.55;;;;;;;3.07;68.15;99835.04;1810415;78;21110;-71
2021/03/05 07:30:18;;;;;;;40.35;21.77;;;;;;;3.09;68.08;99834.98;1793005;78;21126;-76
2021/03/05 07:32:50;;;;;;;35.68;19.32;;;;;;;3.11;68.08;99843.09;1773891;78;21477;-74
2021/03/05 07:35:22;;;;;;;37.40;20.08;;;;;;;3.10;67.92;99841.87;1817211;78;21122;-73
2021/03/05 07:37:54;;;;;;;36.15;19.60;;;;;;;3.07;67.83;99852.47;1802335;78;22182;-72
2021/03/05 07:40:22;;;;;;;33.35;18.45;;;;;;;3.03;67.70;99856.19;1795044;78;21086;-72
2021/03/05 07:42:50;;;;;;;36.73;20.35;;;;;;;3.00;67.65;99854.60;1794529;79;21446;-71
2021/03/05 07:45:20;;;;;;;36.93;19.95;;;;;;;2.97;67.47;99856.52;1793416;80;21111;-69
2021/03/05 07:47:50;;;;;;;41.60;20.97;;;;;;;2.96;67.53;99853.08;1782678;79;21184;-68
2021/03/05 07:50:24;;;;;;;36.35;20.68;;;;;;;2.94;67.56;99848.41;1804859;78;21868;-70
2021/03/05 07:52:52;;;;;;;35.03;20.60;;;;;;;2.93;67.55;99855.02;1824707;78;21075;-70
2021/03/05 07:55:41;;;;;;;37.93;20.35;;;;;;;2.91;67.51;99852.51;1817288;78;21111;-70
2021/03/05 07:58:10;;;;;;;33.80;19.50;;;;;;;2.90;67.45;99853.44;1792161;79;21113;-70
2021/03/05 08:00:51;;;;;;;39.33;21.62;;;;;;;2.90;67.46;99853.91;1824455;78;21156;-71
2021/03/05 08:03:25;;;;;;;37.20;19.75;;;;;;;2.90;67.47;99853.91;1793082;80;22025;-70
2021/03/05 08:05:59;;;;;;;39.27;21.40;;;;;;;2.92;67.52;99857.27;1793864;78;21058;-69
2021/03/05 08:08:29;;;;;;;42.80;21.73;;;;;;;2.91;67.50;99850.36;1795647;78;21177;-73
2021/03/05 08:11:03;;;;;;;40.20;21.10;;;;;;;2.90;67.56;99848.22;1784902;78;21152;-69
2021/03/05 08:13:50;;;;;;;36.80;20.40;;;;;;;2.92;67.47;99855.95;1803762;78;21097;-71
2021/03/05 08:16:37;;;;;;;37.13;19.98;;;;;;;2.94;67.52;99860.16;1795560;78;22056;-70
2021/03/05 08:19:14;;;;;;;36.55;20.52;;;;;;;2.97;67.40;99859.13;1798652;78;21456;-70
2021/03/05 08:22:01;;;;;;;34.45;19.80;;;;;;;2.98;67.29;99864.72;1792846;78;21533;-70
2021/03/05 08:24:36;;;;;;;37.70;20.95;;;;;;;3.00;67.32;99853.30;1785532;78;21176;-70
2021/03/05 08:27:06;;;;;;;30.37;16.40;;;;;;;3.03;67.26;99853.11;1810152;78;21042;-70
2021/03/05 08:30:11;;;;;;;34.38;19.48;;;;;;;3.07;67.21;99855.08;1792933;79;22117;-70
2021/03/05 08:33:00;;;;;;;35.95;19.92;;;;;;;3.07;67.11;99854.61;1806365;78;21137;-69
2021/03/05 08:35:36;;;;;;;32.63;18.15;;;;;;;3.12;67.17;99840.02;1780178;78;21544;-71
2021/03/05 08:38:13;;;;;;;34.92;18.45;;;;;;;3.15;67.00;99858.09;1820595;78;21082;-72
2021/03/05 08:40:48;;;;;;;28.52;16.65;;;;;;;3.16;66.80;99855.39;1774942;79;21090;-71
2021/03/05 08:43:26;;;;;;;35.33;20.23;;;;;;;3.18;66.68;99853.99;1796023;78;22811;-70
2021/03/05 08:46:06;;;;;;;41.35;21.30;;;;;;;3.21;66.69;99863.44;1801168;79;21171;-71
2021/03/05 08:48:43;;;;;;;38.10;20.60;;;;;;;3.20;66.59;99868.28;1761714;79;21350;-71
2021/03/05 08:51:19;;;;;;;35.95;20.52;;;;;;;3.21;66.59;99878.63;1793274;78;21520;-71
2021/03/05 08:53:53;;;;;;;32.65;19.05;;;;;;;3.21;66.48;99878.63;1793986;79;21074;-69
2021/03/05 08:56:26;;;;;;;36.20;20.77;;;;;;;3.25;66.50;99883.20;1818950;78;23036;-70
2021/03/05 08:59:03;;;;;;;31.57;19.05;;;;;;;3.28;66.43;99876.06;1790029;79;21056;-70
2021/03/05 09:01:36;;;;;;;32.55;19.37;;;;;;;3.32;66.30;99871.02;1802152;78;21066;-70
2021/03/05 09:06:57;;;;;;;38.63;21.77;;;;;;;3.43;66.22;99868.62;1898913;74;29026;-72
2021/03/05 09:09:28;;;;;;;38.20;21.52;;;;;;;3.41;66.08;99878.79;1816490;78;21049;-77
2021/03/05 09:12:13;;;;;;;35.83;21.07;;;;;;;3.42;66.04;99882.61;1802737;77;22767;-72
2021/03/05 09:14:42;;;;;;;37.80;19.52;;;;;;;3.42;66.00;99884.39;1818273;77;21138;-71
2021/03/05 09:17:10;;;;;;;34.75;20.88;;;;;;;3.44;66.04;99882.05;1810494;77;21170;-71
2021/03/05 09:19:47;;;;;;;36.05;20.23;;;;;;;3.47;66.02;99882.80;1834962;77;22210;-71
2021/03/05 09:22:25;;;;;;;37.55;20.80;;;;;;;3.49;65.95;99882.27;1839349;77;21103;-71
2021/03/05 09:25:05;;;;;;;35.40;19.07;;;;;;;3.50;65.94;99886.09;1824606;77;21504;-71
2021/03/05 09:27:39;;;;;;;34.67;20.12;;;;;;;3.51;65.87;99901.30;1816534;77;21066;-72
2021/03/05 09:30:21;;;;;;;33.18;19.02;;;;;;;3.51;65.78;99907.36;1847260;77;21028;-72
2021/03/05 09:32:54;;;;;;;33.30;19.98;;;;;;;3.51;65.76;99910.43;1821684;77;21138;-72
2021/03/05 09:35:27;;;;;;;38.10;20.82;;;;;;;3.51;65.65;99917.80;1843734;77;21158;-72
2021/03/05 09:37:55;;;;;;;32.48;19.10;;;;;;;3.52;65.75;99914.72;1816545;79;22990;-72
2021/03/05 09:40:28;;;;;;;35.00;19.87;;;;;;;3.53;65.67;99902.87;1812407;79;21185;-72
2021/03/05 09:43:00;;;;;;;36.60;20.70;;;;;;;3.56;65.72;99890.09;1810439;79;21059;-72
2021/03/05 09:45:52;;;;;;;39.30;20.27;;;;;;;3.60;65.83;99888.55;1813682;79;21446;-71
2021/03/05 09:48:32;;;;;;;37.38;20.77;;;;;;;3.70;65.92;99895.37;1814022;79;21143;-72
2021/03/05 09:53:55;;;;;;;35.83;19.95;;;;;;;3.92;65.44;99895.78;1873157;75;29064;-72
2021/03/05 09:56:27;;;;;;;34.35;19.37;;;;;;;3.90;65.11;99895.03;1841605;77;21053;-71
2021/03/05 09:59:01;;;;;;;34.13;20.48;;;;;;;3.84;64.89;99889.33;1841503;78;21884;-71
2021/03/05 10:01:33;;;;;;;39.63;20.72;;;;;;;3.81;65.00;99894.27;1841558;78;21095;-72
2021/03/05 10:04:02;;;;;;;32.33;19.05;;;;;;;3.82;64.97;99893.80;1841464;77;21068;-73
2021/03/05 10:06:32;;;;;;;32.88;18.20;;;;;;;3.86;64.92;99903.13;1814522;78;21102;-71
2021/03/05 10:09:09;;;;;;;30.92;19.23;;;;;;;3.84;64.59;99907.14;1832184;78;21024;-71
2021/03/05 10:11:42;;;;;;;34.00;18.30;;;;;;;3.78;64.41;99910.60;1808447;79;22062;-71
2021/03/05 10:14:11;;;;;;;33.05;20.00;;;;;;;3.74;64.38;99909.92;1781712;78;21069;-73
2021/03/05 10:16:41;;;;;;;34.67;20.20;;;;;;;3.73;64.53;99906.94;1822412;78;21052;-72
2021/03/05 10:19:15;;;;;;;32.42;18.73;;;;;;;3.74;64.60;99910.77;1841118;78;21191;-72
2021/03/05 10:21:46;;;;;;;34.95;20.40;;;;;;;3.80;64.78;99910.05;1831554;78;21089;-71
2021/03/05 10:24:23;;;;;;;36.05;20.92;;;;;;;3.84;64.62;99911.06;1809693;78;21825;-72
2021/03/05 10:27:11;;;;;;;32.53;19.50;;;;;;;3.85;64.63;99917.97;1801058;78;21065;-72
2021/03/05 10:29:50;;;;;;;36.77;19.70;;;;;;;3.84;64.53;99924.13;1788185;80;21492;-72
2021/03/05 10:32:37;;;;;;;36.77;19.48;;;;;;;3.82;64.41;99925.99;1788135;78;21588;-72
2021/03/05 10:35:09;;;;;;;35.95;20.43;;;;;;;3.75;64.33;99916.83;1788219;80;21081;-73
2021/03/05 10:37:40;;;;;;;39.88;22.77;;;;;;;3.74;64.56;99903.39;1807601;78;22045;-73
2021/03/05 10:40:14;;;;;;;36.80;20.80;;;;;;;3.80;64.74;99903.52;1807958;79;21104;-71
2021/03/05 10:42:42;;;;;;;36.80;21.20;;;;;;;3.85;64.68;99891.00;1803438;79;21054;-72
2021/03/05 10:45:12;;;;;;;34.63;20.10;;;;;;;3.87;64.70;99893.08;1781145;79;21372;-71
2021/03/05 10:47:39;;;;;;;37.58;20.68;;;;;;;3.88;64.50;99892.98;1783284;79;21143;-71
2021/03/05 10:50:10;;;;;;;35.43;19.80;;;;;;;3.88;64.48;99904.74;1807272;79;21906;-72
2021/03/05 10:52:37;;;;;;;36.77;21.23;;;;;;;3.92;64.53;99910.62;1810516;79;21078;-71
2021/03/05 10:55:09;;;;;;;31.52;19.92;;;;;;;3.93;64.47;99902.68;1811803;79;20972;-74
2021/03/05 10:57:39;;;;;;;37.03;21.42;;;;;;;3.95;64.46;99904.73;1800887;79;21546;-72
2021/03/05 11:00:10;;;;;;;36.55;20.10;;;;;;;3.96;64.53;99899.91;1772911;79;21163;-73
2021/03/05 11:02:39;;;;;;;35.15;21.45;;;;;;;3.99;64.39;99904.10;1803278;78;22938;-73
2021/03/05 11:05:09;;;;;;;35.10;19.30;;;;;;;3.99;64.44;99908.02;1799726;79;21569;-72
2021/03/05 11:07:38;;;;;;;35.92;20.15;;;;;;;3.99;64.28;99902.80;1767747;79;21101;-73
2021/03/05 11:10:07;;;;;;;34.43;19.87;;;;;;;3.99;64.21;99898.88;1759587;81;21163;-73
2021/03/05 11:12:35;;;;;;;39.42;22.10;;;;;;;3.99;64.15;99902.33;1777670;79;21008;-71
2021/03/05 11:15:05;;;;;;;35.73;20.97;;;;;;;3.96;64.14;99901.68;1782307;79;22090;-72
2021/03/05 11:17:33;;;;;;;33.78;20.48;;;;;;;3.94;64.23;99905.66;1793029;79;21135;-72
2021/03/05 11:20:04;;;;;;;32.85;20.23;;;;;;;3.93;64.21;99900.07;1801465;78;21068;-72
2021/03/05 11:22:33;;;;;;;36.05;20.88;;;;;;;3.93;64.11;99905.30;1805662;79;21060;-71
2021/03/05 11:25:05;;;;;;;33.78;20.92;;;;;;;3.91;63.95;99896.71;1762894;79;21604;-71
2021/03/05 11:27:34;;;;;;;36.45;21.68;;;;;;;3.89;63.95;99910.34;1789372;79;22055;-71
2021/03/05 11:30:05;;;;;;;35.20;20.20;;;;;;;3.87;64.12;99906.98;1781396;80;21087;-70
2021/03/05 11:32:34;;;;;;;28.57;17.73;;;;;;;3.87;64.28;99906.14;1779760;79;21625;-71
2021/03/05 11:35:04;;;;;;;35.52;20.45;;;;;;;3.83;64.02;99915.91;1768069;79;21059;-71
2021/03/05 11:37:31;;;;;;;37.45;20.52;;;;;;;3.72;63.99;99916.55;1788033;79;21063;-70
2021/03/05 11:40:01;;;;;;;32.42;19.52;;;;;;;3.64;64.00;99918.76;1781526;79;22801;-72
2021/03/05 11:42:29;;;;;;;31.17;18.20;;;;;;;3.56;64.23;99920.97;1781367;80;21150;-70
2021/03/05 11:44:58;;;;;;;33.45;19.77;;;;;;;3.52;64.18;99915.56;1787703;79;21418;-70
2021/03/05 11:47:26;;;;;;;34.95;21.10;;;;;;;3.49;64.31;99918.83;1813528;79;21582;-70
2021/03/05 11:49:55;;;;;;;34.75;19.42;;;;;;;3.45;64.37;99905.09;1812052;78;21044;-71
2021/03/05 11:52:23;;;;;;;36.80;21.02;;;;;;;3.42;64.48;99907.41;1797007;79;22936;-71
2021/03/05 11:54:52;;;;;;;37.85;21.42;;;;;;;3.44;64.58;99904.25;1792162;79;21408;-69